Latest Coastal Weather Observations for Melbourne (Olympic Park)

IDV60701

Issued at 9:35 pm EST Saturday 23 August 2014 (issued every 10 minutes, with the page automatically refreshed every 10 minutes)

About coastal observations | Map of coastal stations | Coastal observations for VIC | Marine services | Other Formats
Station Details ID: 086338 Name: MELBOURNE (OLYMPIC PARK) Lat: -37.83 Lon: 144.98 Height: 7.53 m
Data from the previous 72 hours. | See also: Recent months at Melbourne (Olympic Park)
Date/Time
EST
Temp

°C
Wind Pressure Rain
since 9am
mm
Weather Cloud Vis
km
Sea
Height
m
Swell
Dir
 
Speed
knots
Gust
knots
hPa Trend Height
m
Period
s
Dir
23/09:30pm 16.8 NNE 7 11 1024.0 - 0.0 - - - - - - -
23/09:00pm 16.7 NNE 8 15 1024.1 - 0.0 - - - - - - -
23/08:30pm 16.5 NNE 9 16 1023.7 - 0.0 - - - - - - -
23/08:00pm 16.8 NNE 9 16 1023.9 - 0.0 - - - - - - -
23/07:30pm 17.3 NNE 8 12 1024.3 - 0.0 - - - - - - -
23/07:00pm 17.1 NNE 7 11 1024.6 - 0.0 - - - - - - -
23/06:30pm 17.6 NNE 8 13 1024.5 - 0.0 - - - - - - -
23/06:00pm 18.0 NNE 6 10 1024.5 - 0.0 - - - - - - -
23/05:30pm 18.8 N 8 15 1024.4 - 0.0 - - - - - - -
23/05:00pm 19.3 N 7 11 1024.2 - 0.0 - - - - - - -
23/04:30pm 19.5 N 9 14 1024.1 - 0.0 - - - - - - -
23/04:00pm 19.9 NNE 9 14 1024.1 - 0.0 - - - - - - -
23/03:30pm 18.8 N 11 17 1024.3 - 0.0 - - - - - - -
23/03:00pm 19.6 N 11 17 1024.5 - 0.0 - - - - - - -
23/02:30pm 20.1 N 12 20 1024.7 - 0.0 - - - - - - -
23/02:00pm 19.1 N 11 17 1025.0 - 0.0 - - - - - - -
23/01:30pm 19.5 N 11 18 1025.4 - 0.0 - - - - - - -
23/01:00pm 18.7 N 10 15 1025.8 - 0.0 - - - - - - -
23/12:30pm 18.8 N 12 16 1026.3 - 0.0 - - - - - - -
23/12:00pm 18.4 NNE 9 17 1026.9 - 0.0 - - - - - - -
23/11:30am 18.5 N 9 15 1027.4 - 0.0 - - - - - - -
23/11:00am 17.3 NNE 10 15 1028.0 - 0.0 - - - - - - -
23/10:30am 16.9 NNE 6 12 1028.4 - 0.0 - - - - - - -
23/10:00am 15.3 NNE 5 8 1028.6 - 0.0 - - - - - - -
23/09:30am 12.9 NNE 5 7 1028.9 - 0.0 - - - - - - -
23/09:00am 11.1 N 5 7 1029.1 - 0.0 - - - - - - -
23/08:30am 9.5 NNE 5 8 1029.2 - 0.0 - - - - - - -
23/08:00am 8.1 NNE 5 7 1029.0 - 0.0 - - - - - - -
23/07:30am 7.5 N 4 5 1028.7 - 0.0 - - - - - - -
23/07:00am 7.7 NNE 5 7 1028.5 - 0.0 - - - - - - -
23/06:30am 7.6 NNE 5 7 1028.2 - 0.0 - - - - - - -
23/06:00am 7.8 NNE 6 8 1028.1 - 0.0 - - - - - - -
23/05:30am 7.6 N 3 5 1027.9 - 0.0 - - - - - - -
23/05:00am 7.6 N 4 6 1027.6 - 0.0 - - - - - - -
23/04:30am 8.0 NNE 4 6 1027.5 - 0.0 - - - - - - -
23/04:00am 8.1 NNE 5 7 1027.5 - 0.0 - - - - - - -
23/03:30am 8.2 NNE 5 7 1027.6 - 0.0 - - - - - - -
23/03:00am 8.7 NNE 7 9 1027.7 - 0.0 - - - - - - -
23/02:30am 9.0 NNE 6 8 1028.0 - 0.0 - - - - - - -
23/02:00am 9.3 NNE 5 7 1028.2 - 0.0 - - - - - - -
23/01:30am 9.5 NE 2 6 1028.3 - 0.0 - - - - - - -
23/01:00am 9.8 NNE 4 8 1028.2 - 0.0 - - - - - - -
23/12:30am 9.7 NNE 3 7 1028.2 - 0.0 - - - - - - -
23/12:00am 10.3 NNE 3 6 1028.2 - 0.0 - - - - - - -
 
Date/Time
EST
Temp

°C
Wind Pressure Rain
since 9am
mm
Weather Cloud Vis
km
Sea
Height
m
Swell
Dir
 
Speed
knots
Gust
knots
hPa Trend Height
m
Period
s
Dir
22/11:30pm 10.8 NNE 2 4 1028.4 - 0.0 - - - - - - -
22/11:00pm 11.3 NNE 3 5 1028.4 - 0.0 - - - - - - -
22/10:30pm 11.7 ENE 1 4 1028.5 - 0.0 - - - - - - -
22/10:00pm 12.5 NNE 2 6 1028.5 - 0.0 - - - - - - -
22/09:30pm 10.8 ESE 2 4 1028.6 - 0.0 - - - - - - -
22/09:00pm 11.4 CALM 0 0 1028.8 - 0.0 - - - - - - -
22/08:30pm 11.8 CALM 0 0 1028.7 - 0.0 - - - - - - -
22/08:00pm 12.8 NE 1 4 1028.5 - 0.0 - - - - - - -
22/07:30pm 13.7 CALM 0 0 1028.4 - 0.0 - - - - - - -
22/07:00pm 14.6 ESE 3 6 1028.2 - 0.0 - - - - - - -
22/06:30pm 14.1 CALM 0 0 1027.9 - 0.0 - - - - - - -
22/06:00pm 15.8 CALM 0 3 1027.7 - 0.0 - - - - - - -
22/05:30pm 17.5 N 3 6 1027.6 - 0.0 - - - - - - -
22/05:00pm 18.5 NNW 3 7 1027.6 - 0.0 - - - - - - -
22/04:30pm 18.7 NNE 6 10 1027.4 - 0.0 - - - - - - -
22/04:00pm 19.1 NNE 6 8 1027.3 - 0.0 - - - - - - -
22/03:30pm 19.7 N 7 10 1027.5 - 0.0 - - - - - - -
22/03:00pm 19.6 NNE 5 8 1027.7 - 0.0 - - - - - - -
22/02:30pm 19.1 NW 7 11 1027.9 - 0.0 - - - - - - -
22/02:00pm 19.2 N 4 11 1028.2 - 0.0 - - - - - - -
22/01:30pm 19.3 NW 4 10 1028.5 - 0.0 - - - - - - -
22/01:00pm 19.2 NNE 8 12 1028.9 - 0.0 - - - - - - -
22/12:30pm 18.6 N 7 11 1029.4 - 0.0 - - - - - - -
22/12:00pm 18.0 NNW 9 12 1029.9 - 0.0 - - - - - - -
22/11:30am 18.3 N 7 11 1030.4 - 0.0 - - - - - - -
22/11:00am 17.5 NNE 4 7 1030.7 - 0.0 - - - - - - -
22/10:30am 15.2 NNE 4 6 1031.0 - 0.0 - - - - - - -
22/10:00am 13.6 NE 5 7 1031.2 - 0.0 - - - - - - -
22/09:30am 12.2 NE 5 8 1031.3 - 0.0 - - - - - - -
22/09:00am 10.8 NE 5 8 1031.4 - 0.0 - - - - - - -
22/08:30am 9.3 NE 5 9 1031.4 - 0.0 - - - - - - -
22/08:00am 8.2 NE 5 8 1031.3 - 0.0 - - - - - - -
22/07:30am 8.4 NE 5 9 1031.0 - 0.0 - - - - - - -
22/07:00am 7.9 NNE 4 6 1030.6 - 0.0 - - - - - - -
22/06:30am 7.2 N 5 5 1030.4 - 0.0 - - - - - - -
22/06:00am 7.2 NNE 3 7 1030.2 - 0.0 - - - - - - -
22/05:30am 7.6 NNE 5 6 1030.1 - 0.0 - - - - - - -
22/05:00am 8.1 NE 5 7 1029.9 - 0.0 - - - - - - -
22/04:30am 8.2 NE 5 8 1029.7 - 0.0 - - - - - - -
22/04:00am 8.2 NNE 5 6 1029.5 - 0.0 - - - - - - -
22/03:30am 8.5 NNE 4 6 1029.5 - 0.0 - - - - - - -
22/03:00am 8.7 NE 3 6 1029.4 - 0.0 - - - - - - -
22/02:30am 8.6 NNE 5 6 1029.7 - 0.0 - - - - - - -
22/02:00am 8.8 NNE 5 8 1029.6 - 0.0 - - - - - - -
22/01:30am 9.0 NNE 4 7 1029.7 - 0.0 - - - - - - -
22/01:00am 9.3 NNE 4 7 1029.6 - 0.0 - - - - - - -
22/12:30am 9.5 NNE 4 7 1029.6 - 0.0 - - - - - - -
22/12:00am 9.8 N 4 6 1029.6 - 0.0 - - - - - - -
 
Date/Time
EST
Temp

°C
Wind Pressure Rain
since 9am
mm
Weather Cloud Vis
km
Sea
Height
m
Swell
Dir
 
Speed
knots
Gust
knots
hPa Trend Height
m
Period
s
Dir
21/11:30pm 10.0 N 2 4 1029.6 - 0.0 - - - - - - -
21/11:00pm 10.7 NE 3 6 1029.6 - 0.0 - - - - - - -
21/10:30pm 9.4 CALM 0 3 1029.5 - 0.0 - - - - - - -
21/10:00pm 9.6 CALM 0 0 1029.5 - 0.0 - - - - - - -
21/09:30pm 10.2 CALM 0 0 1029.4 - 0.0 - - - - - - -
21/09:00pm 12.6 NNE 4 6 1029.2 - 0.0 - - - - - - -
21/08:30pm 12.6 NNE 3 5 1028.9 - 0.0 - - - - - - -
21/08:00pm 13.0 N 1 4 1028.7 - 0.0 - - - - - - -
21/07:30pm 14.1 N 3 6 1028.5 - 0.0 - - - - - - -
21/07:00pm 15.0 N 4 6 1028.2 - 0.0 - - - - - - -
21/06:30pm 15.1 N 3 6 1028.0 - 0.0 - - - - - - -
21/06:00pm 16.2 NNE 5 9 1027.8 - 0.0 - - - - - - -
21/05:30pm 16.2 N 5 8 1027.4 - 0.0 - - - - - - -
21/05:00pm 16.7 N 8 12 1027.0 - 0.0 - - - - - - -
21/04:30pm 17.1 N 5 8 1026.8 - 0.0 - - - - - - -
21/04:00pm 16.7 NNW 5 11 1026.8 - 0.0 - - - - - - -
21/03:30pm 15.1 SSW 3 6 1026.9 - 0.0 - - - - - - -
21/03:00pm 15.2 SSW 3 5 1027.0 - 0.0 - - - - - - -
21/02:30pm 15.7 S 4 7 1026.9 - 0.0 - - - - - - -
21/02:00pm 14.4 SSW 5 8 1027.0 - 0.0 - - - - - - -
21/01:30pm 13.8 SW 4 6 1027.1 - 0.0 - - - - - - -
21/01:00pm 15.6 ENE 3 6 1027.5 - 0.0 - - - - - - -
21/12:30pm 14.9 N 6 9 1028.0 - 0.0 - - - - - - -
21/12:00pm 15.0 ENE 3 6 1028.5 - 0.0 - - - - - - -
21/11:30am 14.2 ESE 2 5 1029.0 - 0.0 - - - - - - -
21/11:00am 12.9 E 2 4 1029.2 - 0.0 - - - - - - -
21/10:30am 11.9 N 4 8 1029.5 - 0.0 - - - - - - -
21/10:00am 12.3 NNE 1 5 1029.5 - 0.0 - - - - - - -
21/09:30am 10.7 NNE 3 6 1029.6 - 0.0 - - - - - - -
21/09:00am 9.4 NE 4 6 1029.6 - 0.0 - - - - - - -
21/08:30am 8.7 NNE 6 7 1029.4 - 0.0 - - - - - - -
21/08:00am 8.2 NE 5 6 1029.1 - 0.0 - - - - - - -
21/07:30am 8.1 N 3 7 1028.8 - 0.0 - - - - - - -
21/07:00am 8.2 CALM 0 4 1028.2 - 0.0 - - - - - - -
21/06:30am 8.7 CALM 0 3 1028.3 - 0.0 - - - - - - -
21/06:00am 8.6 CALM 0 0 1028.1 - 0.0 - - - - - - -
21/05:30am 8.6 CALM 0 4 1027.9 - 0.0 - - - - - - -
21/05:00am 8.4 CALM 0 0 1027.9 - 0.0 - - - - - - -
21/04:30am 7.8 S 1 4 1027.8 - 0.0 - - - - - - -
21/04:00am 7.6 CALM 0 0 1027.9 - 0.0 - - - - - - -
21/03:30am 8.1 CALM 0 0 1027.6 - 0.0 - - - - - - -
21/03:00am 9.1 CALM 0 0 1027.6 - 0.0 - - - - - - -
21/02:30am 9.8 S 1 4 1027.7 - 0.0 - - - - - - -
21/02:00am 9.9 CALM 0 0 1027.7 - 0.0 - - - - - - -
21/01:30am 10.1 S 1 3 1027.6 - 0.0 - - - - - - -
21/01:00am 10.2 S 3 5 1027.7 - 0.0 - - - - - - -
21/12:30am 10.4 SSE 5 7 1027.8 - 0.0 - - - - - - -
21/12:00am 10.3 S 4 7 1027.8 - 0.0 - - - - - - -
 
Date/Time
EST
Temp

°C
Wind Pressure Rain
since 9am
mm
Weather Cloud Vis
km
Sea
Height
m
Swell
Dir
 
Speed
knots
Gust
knots
hPa Trend Height
m
Period
s
Dir
20/11:30pm 10.5 SSE 5 7 1027.9 - 0.0 - - - - - - -
20/11:00pm 10.5 S 4 6 1028.0 - 0.0 - - - - - - -
20/10:30pm 10.6 SSE 5 8 1028.2 - 0.0 - - - - - - -
20/10:00pm 10.8 SSE 5 8 1028.4 - 0.0 - - - - - - -

Other Formats:

Comma delimited format used in spreadsheet applications
http://www.bom.gov.au/fwo/IDV60701/IDV60701.95936.axf

JavaScript Object Notation format (JSON) in row-major order
http://www.bom.gov.au/fwo/IDV60701/IDV60701.95936.json